Time,TemperatureF,DewpointF,PressureIn,WindDirection,WindDirectionDegrees,WindSpeedMPH,WindSpeedGustMPH,Humidity,HourlyPrecipIn,Conditions,Clouds,dailyrainin,SolarRadiationWatts/m^2,SoftwareType,DateUTC
2013-05-09 00:21:00,50.0,35.0,-100.00,North,10,2.0,11.0,56,0.00,,,0.00,0.000000,,2013-05-09 06:21:00,
2013-05-09 00:32:00,50.0,35.0,-100.00,North,10,2.0,11.0,56,0.00,,,0.00,0.000000,,2013-05-09 06:32:00,
2013-05-09 00:42:00,50.0,35.0,-100.00,North,10,2.0,11.0,56,0.00,,,0.00,0.000000,,2013-05-09 06:42:00,
2013-05-09 00:52:00,50.0,35.0,-100.00,North,10,2.0,11.0,56,0.00,,,0.00,0.000000,,2013-05-09 06:52:00,
2013-05-09 01:21:00,41.0,34.0,-100.00,NNW,336,2.0,4.0,75,0.00,,,0.00,0.000000,,2013-05-09 07:21:00,
2013-05-09 01:32:00,41.0,34.0,-100.00,NNW,336,2.0,4.0,75,0.00,,,0.00,0.000000,,2013-05-09 07:32:00,
2013-05-09 01:42:00,41.0,34.0,-100.00,NNW,336,2.0,4.0,75,0.00,,,0.00,0.000000,,2013-05-09 07:42:00,
2013-05-09 01:52:00,41.0,34.0,-100.00,NNW,336,2.0,4.0,75,0.00,,,0.00,0.000000,,2013-05-09 07:52:00,
2013-05-09 02:21:00,37.0,32.0,-100.00,NW,315,2.0,4.0,83,0.00,,,0.00,0.000000,,2013-05-09 08:21:00,
2013-05-09 02:32:00,37.0,32.0,-100.00,NW,315,2.0,4.0,83,0.00,,,0.00,0.000000,,2013-05-09 08:32:00,
2013-05-09 02:42:00,37.0,32.0,-100.00,NW,315,2.0,4.0,83,0.00,,,0.00,0.000000,,2013-05-09 08:42:00,
2013-05-09 02:51:00,37.0,32.0,-100.00,NW,315,2.0,4.0,83,0.00,,,0.00,0.000000,,2013-05-09 08:51:00,
2013-05-09 03:21:00,35.0,32.0,-100.00,NW,325,3.0,3.0,87,0.00,,,0.00,0.000000,,2013-05-09 09:21:00,
2013-05-09 03:32:00,35.0,32.0,-100.00,NW,325,3.0,3.0,87,0.00,,,0.00,0.000000,,2013-05-09 09:32:00,
2013-05-09 03:42:00,35.0,32.0,-100.00,NW,325,3.0,3.0,87,0.00,,,0.00,0.000000,,2013-05-09 09:42:00,
2013-05-09 03:52:00,35.0,32.0,-100.00,NW,325,3.0,3.0,87,0.00,,,0.00,0.000000,,2013-05-09 09:52:00,
2013-05-09 04:22:00,33.0,30.0,-100.00,WNW,298,2.0,4.0,89,0.00,,,0.00,0.000000,,2013-05-09 10:22:00,
2013-05-09 04:33:00,33.0,30.0,-100.00,WNW,298,2.0,4.0,89,0.00,,,0.00,0.000000,,2013-05-09 10:33:00,
2013-05-09 04:42:00,33.0,30.0,-100.00,WNW,298,2.0,4.0,89,0.00,,,0.00,0.000000,,2013-05-09 10:42:00,
2013-05-09 04:52:00,33.0,30.0,-100.00,WNW,298,2.0,4.0,89,0.00,,,0.00,0.000000,,2013-05-09 10:52:00,
2013-05-09 05:22:00,32.0,30.0,-100.00,NNW,342,3.0,4.0,92,0.00,,,0.00,0.000000,,2013-05-09 11:22:00,
2013-05-09 05:32:00,32.0,30.0,-100.00,NNW,342,3.0,4.0,92,0.00,,,0.00,0.000000,,2013-05-09 11:32:00,
2013-05-09 05:41:00,32.0,30.0,-100.00,NNW,342,3.0,4.0,92,0.00,,,0.00,0.000000,,2013-05-09 11:41:00,
2013-05-09 05:51:00,32.0,30.0,-100.00,NNW,342,3.0,4.0,92,0.00,,,0.00,0.000000,,2013-05-09 11:51:00,
2013-05-09 06:22:00,31.0,29.0,-100.00,NNW,336,2.0,4.0,93,0.00,,,0.00,4.000000,,2013-05-09 12:22:00,
2013-05-09 06:32:00,31.0,29.0,-100.00,NNW,336,2.0,4.0,93,0.00,,,0.00,4.000000,,2013-05-09 12:32:00,
2013-05-09 06:42:00,31.0,29.0,-100.00,NNW,336,2.0,4.0,93,0.00,,,0.00,4.000000,,2013-05-09 12:42:00,
2013-05-09 06:52:00,31.0,29.0,-100.00,NNW,336,2.0,4.0,93,0.00,,,0.00,4.000000,,2013-05-09 12:52:00,
2013-05-09 07:22:00,38.0,35.0,-100.00,NNW,342,3.0,5.0,89,0.00,,,0.00,87.000000,,2013-05-09 13:22:00,
2013-05-09 07:32:00,38.0,35.0,-100.00,NNW,342,3.0,5.0,89,0.00,,,0.00,87.000000,,2013-05-09 13:32:00,
2013-05-09 07:42:00,38.0,35.0,-100.00,NNW,342,3.0,5.0,89,0.00,,,0.00,87.000000,,2013-05-09 13:42:00,
2013-05-09 07:52:00,38.0,35.0,-100.00,NNW,342,3.0,5.0,89,0.00,,,0.00,87.000000,,2013-05-09 13:52:00,
2013-05-09 08:21:00,49.0,40.0,-100.00,SE,140,3.0,4.0,72,0.00,,,0.00,204.000000,,2013-05-09 14:21:00,
2013-05-09 08:32:00,49.0,40.0,-100.00,SE,140,3.0,4.0,72,0.00,,,0.00,204.000000,,2013-05-09 14:32:00,
2013-05-09 08:42:00,49.0,40.0,-100.00,SE,140,3.0,4.0,72,0.00,,,0.00,204.000000,,2013-05-09 14:42:00,
2013-05-09 08:52:00,49.0,40.0,-100.00,SE,140,3.0,4.0,72,0.00,,,0.00,204.000000,,2013-05-09 14:52:00,
2013-05-09 09:22:00,58.0,41.0,-100.00,SSE,162,3.0,6.0,53,0.00,,,0.00,483.000000,,2013-05-09 15:22:00,
2013-05-09 09:33:00,58.0,41.0,-100.00,SSE,162,3.0,6.0,53,0.00,,,0.00,483.000000,,2013-05-09 15:33:00,
2013-05-09 09:43:00,58.0,41.0,-100.00,SSE,162,3.0,6.0,53,0.00,,,0.00,483.000000,,2013-05-09 15:43:00,
2013-05-09 09:52:00,58.0,41.0,-100.00,SSE,162,3.0,6.0,53,0.00,,,0.00,483.000000,,2013-05-09 15:52:00,
2013-05-09 10:23:00,60.0,41.0,-100.00,SE,142,7.0,10.0,50,0.00,,,0.00,518.000000,,2013-05-09 16:23:00,
2013-05-09 10:33:00,60.0,41.0,-100.00,SE,142,7.0,10.0,50,0.00,,,0.00,518.000000,,2013-05-09 16:33:00,
2013-05-09 10:42:00,60.0,41.0,-100.00,SE,142,7.0,10.0,50,0.00,,,0.00,518.000000,,2013-05-09 16:42:00,
2013-05-09 10:52:00,60.0,41.0,-100.00,SE,142,7.0,10.0,50,0.00,,,0.00,518.000000,,2013-05-09 16:52:00,
2013-05-09 11:21:00,52.0,40.0,-100.00,NNW,339,9.0,15.0,63,0.00,,,0.00,505.000000,,2013-05-09 17:21:00,
2013-05-09 11:32:00,52.0,40.0,-100.00,NNW,339,9.0,15.0,63,0.00,,,0.00,505.000000,,2013-05-09 17:32:00,
2013-05-09 11:42:00,52.0,40.0,-100.00,NNW,339,9.0,15.0,63,0.00,,,0.00,505.000000,,2013-05-09 17:42:00,
2013-05-09 11:55:00,52.0,40.0,-100.00,NNW,339,9.0,15.0,63,0.00,,,0.00,505.000000,,2013-05-09 17:55:00,
2013-05-09 12:21:00,55.0,39.0,-100.00,North,360,5.0,11.0,55,0.00,,,0.00,635.000000,,2013-05-09 18:21:00,
2013-05-09 12:32:00,55.0,39.0,-100.00,North,360,5.0,11.0,55,0.00,,,0.00,635.000000,,2013-05-09 18:32:00,
2013-05-09 12:42:00,55.0,39.0,-100.00,North,360,5.0,11.0,55,0.00,,,0.00,635.000000,,2013-05-09 18:42:00,
2013-05-09 12:52:00,55.0,39.0,-100.00,North,360,5.0,11.0,55,0.00,,,0.00,635.000000,,2013-05-09 18:52:00,
2013-05-09 13:21:00,59.0,40.0,-100.00,East,93,4.0,12.0,49,0.00,,,0.00,656.000000,,2013-05-09 19:21:00,
2013-05-09 13:31:00,59.0,40.0,-100.00,East,93,4.0,12.0,49,0.00,,,0.00,656.000000,,2013-05-09 19:31:00,
2013-05-09 13:41:00,59.0,40.0,-100.00,East,93,4.0,12.0,49,0.00,,,0.00,656.000000,,2013-05-09 19:41:00,
2013-05-09 13:52:00,59.0,40.0,-100.00,East,93,4.0,12.0,49,0.00,,,0.00,656.000000,,2013-05-09 19:52:00,
2013-05-09 14:22:00,61.0,38.0,-100.00,East,100,6.0,14.0,42,0.00,,,0.00,886.000000,,2013-05-09 20:22:00,
2013-05-09 14:32:00,61.0,38.0,-100.00,East,100,6.0,14.0,42,0.00,,,0.00,886.000000,,2013-05-09 20:32:00,
2013-05-09 14:42:00,61.0,38.0,-100.00,East,100,6.0,14.0,42,0.00,,,0.00,886.000000,,2013-05-09 20:42:00,
2013-05-09 14:52:00,61.0,38.0,-100.00,East,100,6.0,14.0,42,0.00,,,0.00,886.000000,,2013-05-09 20:52:00,
2013-05-09 15:22:00,56.0,38.0,-100.00,East,84,4.0,18.0,51,0.00,,,-99.99,393.000000,,2013-05-09 21:22:00,
2013-05-09 15:32:00,56.0,38.0,-100.00,East,84,4.0,18.0,51,0.00,,,-99.99,393.000000,,2013-05-09 21:32:00,
2013-05-09 15:43:00,56.0,38.0,-100.00,East,84,4.0,18.0,51,0.00,,,-99.99,393.000000,,2013-05-09 21:43:00,
2013-05-09 15:52:00,56.0,38.0,-100.00,East,84,4.0,18.0,51,0.00,,,-99.99,393.000000,,2013-05-09 21:52:00,
2013-05-09 16:23:00,53.0,42.0,-100.00,South,169,6.0,10.0,66,0.00,,,0.00,123.000000,,2013-05-09 22:23:00,
2013-05-09 16:33:00,53.0,42.0,-100.00,South,169,6.0,10.0,66,0.00,,,0.00,123.000000,,2013-05-09 22:33:00,
2013-05-09 16:42:00,53.0,42.0,-100.00,South,169,6.0,10.0,66,0.00,,,0.00,123.000000,,2013-05-09 22:42:00,
2013-05-09 16:52:00,53.0,42.0,-100.00,South,169,6.0,10.0,66,0.00,,,0.00,123.000000,,2013-05-09 22:52:00,
2013-05-09 17:21:00,57.0,41.0,-100.00,SSE,165,7.0,12.0,56,0.00,,,0.00,376.000000,,2013-05-09 23:21:00,
2013-05-09 17:32:00,57.0,41.0,-100.00,SSE,165,7.0,12.0,56,0.00,,,0.00,376.000000,,2013-05-09 23:32:00,
2013-05-09 17:42:00,57.0,41.0,-100.00,SSE,165,7.0,12.0,56,0.00,,,0.00,376.000000,,2013-05-09 23:42:00,
2013-05-09 17:52:00,57.0,41.0,-100.00,SSE,165,7.0,12.0,56,0.00,,,0.00,376.000000,,2013-05-09 23:52:00,
2013-05-09 18:22:00,56.0,41.0,-100.00,South,180,4.0,10.0,57,0.00,,,0.00,373.000000,,2013-05-10 00:22:00,
2013-05-09 18:32:00,56.0,41.0,-100.00,South,180,4.0,10.0,57,0.00,,,0.00,373.000000,,2013-05-10 00:32:00,
2013-05-09 18:42:00,56.0,41.0,-100.00,South,180,4.0,10.0,57,0.00,,,0.00,373.000000,,2013-05-10 00:42:00,
2013-05-09 18:52:00,56.0,41.0,-100.00,South,180,4.0,10.0,57,0.00,,,0.00,373.000000,,2013-05-10 00:52:00,
2013-05-09 19:21:00,55.0,41.0,-100.00,SSE,161,6.0,9.0,58,0.00,,,0.00,221.000000,,2013-05-10 01:21:00,
2013-05-09 19:32:00,55.0,41.0,-100.00,SSE,161,6.0,9.0,58,0.00,,,0.00,221.000000,,2013-05-10 01:32:00,
2013-05-09 19:42:00,55.0,41.0,-100.00,SSE,161,6.0,9.0,58,0.00,,,0.00,221.000000,,2013-05-10 01:42:00,
2013-05-09 19:52:00,55.0,41.0,-100.00,SSE,161,6.0,9.0,58,0.00,,,0.00,221.000000,,2013-05-10 01:52:00,
2013-05-09 20:21:00,49.0,42.0,-100.00,NNW,343,1.0,7.0,76,0.00,,,0.00,44.000000,,2013-05-10 02:21:00,
2013-05-09 20:32:00,49.0,42.0,-100.00,NNW,343,1.0,7.0,76,0.00,,,0.00,44.000000,,2013-05-10 02:32:00,
2013-05-09 20:42:00,49.0,42.0,-100.00,NNW,343,1.0,7.0,76,0.00,,,0.00,44.000000,,2013-05-10 02:42:00,
2013-05-09 20:52:00,49.0,42.0,-100.00,NNW,343,1.0,7.0,76,0.00,,,0.00,44.000000,,2013-05-10 02:52:00,
2013-05-09 21:22:00,42.0,39.0,-100.00,NW,312,0.0,2.0,88,0.00,,,0.00,2.000000,,2013-05-10 03:22:00,
2013-05-09 21:33:00,42.0,39.0,-100.00,NW,312,0.0,2.0,88,0.00,,,0.00,2.000000,,2013-05-10 03:33:00,
2013-05-09 21:43:00,42.0,39.0,-100.00,NW,312,0.0,2.0,88,0.00,,,0.00,2.000000,,2013-05-10 03:43:00,
2013-05-09 21:53:00,42.0,39.0,-100.00,NW,312,0.0,2.0,88,0.00,,,0.00,2.000000,,2013-05-10 03:53:00,
2013-05-09 22:23:00,40.0,38.0,-100.00,NW,324,2.0,3.0,92,0.00,,,0.00,0.000000,,2013-05-10 04:23:00,
2013-05-09 22:33:00,40.0,38.0,-100.00,NW,324,2.0,3.0,92,0.00,,,0.00,0.000000,,2013-05-10 04:33:00,
2013-05-09 22:43:00,40.0,38.0,-100.00,NW,324,2.0,3.0,92,0.00,,,0.00,0.000000,,2013-05-10 04:43:00,
2013-05-09 22:52:00,40.0,38.0,-100.00,NW,324,2.0,3.0,92,0.00,,,0.00,0.000000,,2013-05-10 04:52:00,
2013-05-09 23:22:00,38.0,36.0,-100.00,North,349,1.0,2.0,93,0.00,,,0.00,0.000000,,2013-05-10 05:22:00,
2013-05-09 23:32:00,38.0,36.0,-100.00,North,349,1.0,2.0,93,0.00,,,0.00,0.000000,,2013-05-10 05:32:00,
2013-05-09 23:42:00,38.0,36.0,-100.00,North,349,1.0,2.0,93,0.00,,,0.00,0.000000,,2013-05-10 05:42:00,
2013-05-09 23:52:00,38.0,36.0,-100.00,North,349,1.0,2.0,93,0.00,,,0.00,0.000000,,2013-05-10 05:52:00,